Time;durP1;ratioP1;P1;durP2;ratioP2;P2;SDS_P1;SDS_P2;PMS_P1;PMS_P2;Temp;Humidity;BMP_temperature;BMP_pressure;BME280_temperature;BME280_humidity;BME280_pressure;Samples;Min_cycle;Max_cycle;Signal;HPM_P1;HPM_P2
2024/01/29 00:01:57;;;;;;;10.30;1.98;;;29.00;99.90;;;;;;5096130;28;20544;-80
2024/01/29 00:04:28;;;;;;;10.15;2.50;;;29.00;99.90;;;;;;5108009;28;20197;-80
2024/01/29 00:06:59;;;;;;;6.85;1.67;;;29.00;99.90;;;;;;5106805;28;20664;-80
2024/01/29 00:09:31;;;;;;;8.02;1.90;;;29.00;99.90;;;;;;5103611;28;20187;-80
2024/01/29 00:12:02;;;;;;;7.38;2.17;;;29.10;99.90;;;;;;5091849;28;20233;-80
2024/01/29 00:14:33;;;;;;;9.50;2.00;;;29.10;99.90;;;;;;5091926;28;20211;-81
2024/01/29 00:17:04;;;;;;;8.23;2.20;;;29.10;99.90;;;;;;5090921;28;20225;-81
2024/01/29 00:19:37;;;;;;;5.90;1.83;;;29.00;99.90;;;;;;5091134;28;20199;-81
2024/01/29 00:22:08;;;;;;;8.43;1.90;;;29.00;99.90;;;;;;5099807;28;20230;-81
2024/01/29 00:24:41;;;;;;;9.55;2.30;;;29.00;99.90;;;;;;5095180;28;20310;-81
2024/01/29 00:27:12;;;;;;;9.57;2.22;;;29.00;99.90;;;;;;5090062;28;20199;-81
2024/01/29 00:29:42;;;;;;;5.55;1.60;;;29.10;99.90;;;;;;5109226;27;20190;-81
2024/01/29 00:32:13;;;;;;;6.38;1.90;;;29.00;99.90;;;;;;5101615;27;20240;-82
2024/01/29 00:34:46;;;;;;;8.57;2.20;;;29.00;99.90;;;;;;5091996;28;20562;-82
2024/01/29 00:37:16;;;;;;;5.60;1.60;;;29.10;99.90;;;;;;5091667;28;20191;-82
2024/01/29 00:39:49;;;;;;;7.47;1.83;;;29.10;99.90;;;;;;5101987;28;20213;-82
2024/01/29 00:42:20;;;;;;;10.20;2.05;;;29.00;99.90;;;;;;5098460;28;20191;-82
2024/01/29 00:44:51;;;;;;;5.35;1.58;;;29.00;99.90;;;;;;5099230;28;20210;-81
2024/01/29 00:47:22;;;;;;;7.82;1.90;;;28.90;99.90;;;;;;5096454;28;20240;-82
2024/01/29 00:49:53;;;;;;;6.78;1.90;;;28.90;99.90;;;;;;5092208;28;20195;-81
2024/01/29 00:52:24;;;;;;;7.25;2.03;;;29.00;99.90;;;;;;5110889;28;20306;-80
2024/01/29 00:54:56;;;;;;;10.88;2.25;;;29.10;99.90;;;;;;5118902;27;20615;-81
2024/01/29 00:57:27;;;;;;;6.45;1.95;;;29.00;99.90;;;;;;5130853;27;20553;-81
2024/01/29 00:59:58;;;;;;;8.80;2.10;;;29.10;99.90;;;;;;5121227;27;20201;-80
2024/01/29 01:02:29;;;;;;;9.13;1.98;;;29.10;99.90;;;;;;5132120;27;20276;-81
2024/01/29 01:05:00;;;;;;;7.32;1.80;;;29.10;99.90;;;;;;5126325;27;20228;-80
2024/01/29 01:07:31;;;;;;;11.10;2.30;;;29.10;99.90;;;;;;5116760;27;20186;-81
2024/01/29 01:10:04;;;;;;;8.25;2.00;;;29.20;99.90;;;;;;5120488;27;20658;-80
2024/01/29 01:12:34;;;;;;;5.15;1.70;;;29.10;99.90;;;;;;5121832;27;20239;-80
2024/01/29 01:15:05;;;;;;;7.50;2.15;;;29.20;99.90;;;;;;5132590;27;20204;-80
2024/01/29 01:17:36;;;;;;;6.90;2.20;;;29.30;99.90;;;;;;5118367;27;20569;-80
2024/01/29 01:20:08;;;;;;;10.05;2.20;;;29.30;99.90;;;;;;5117518;27;20193;-81
2024/01/29 01:22:39;;;;;;;8.57;1.92;;;29.30;99.90;;;;;;5132313;27;20252;-81
2024/01/29 01:25:14;;;;;;;7.75;1.88;;;29.30;99.90;;;;;;5132685;27;20213;-81
2024/01/29 01:27:45;;;;;;;9.25;1.98;;;29.30;99.90;;;;;;5120931;27;20194;-81
2024/01/29 01:30:16;;;;;;;6.85;1.98;;;29.20;99.90;;;;;;5111079;28;20313;-80
2024/01/29 01:32:46;;;;;;;5.15;1.80;;;29.20;99.90;;;;;;5111988;28;20195;-81
2024/01/29 01:35:17;;;;;;;7.95;2.13;;;29.20;99.90;;;;;;5111540;28;20588;-82
2024/01/29 01:37:48;;;;;;;10.45;2.50;;;29.30;99.90;;;;;;5111829;28;20205;-81
2024/01/29 01:40:22;;;;;;;6.97;2.08;;;29.30;99.90;;;;;;5132620;28;20629;-81
2024/01/29 01:42:52;;;;;;;9.65;2.25;;;29.40;99.90;;;;;;5132148;28;20197;-81
2024/01/29 01:45:23;;;;;;;8.70;2.25;;;29.40;99.90;;;;;;5132460;28;20222;-81
2024/01/29 01:47:55;;;;;;;7.45;2.08;;;29.50;99.90;;;;;;5121696;28;20570;-81
2024/01/29 01:50:26;;;;;;;11.02;2.28;;;29.50;99.90;;;;;;5126563;28;20238;-83
2024/01/29 01:52:57;;;;;;;9.73;1.88;;;29.50;99.90;;;;;;5113485;28;20217;-81
2024/01/29 01:55:31;;;;;;;7.40;2.22;;;29.40;99.90;;;;;;5116097;28;20266;-82
2024/01/29 01:58:02;;;;;;;6.85;2.10;;;29.50;99.90;;;;;;5116779;27;20193;-82
2024/01/29 02:00:34;;;;;;;8.38;2.10;;;29.50;99.90;;;;;;5120622;27;20675;-82
2024/01/29 02:03:05;;;;;;;8.75;2.55;;;29.50;99.90;;;;;;5120590;27;20205;-81
2024/01/29 02:05:35;;;;;;;8.27;2.25;;;29.50;99.90;;;;;;5129632;27;20199;-80
2024/01/29 02:08:07;;;;;;;10.98;2.55;;;29.50;99.90;;;;;;5131409;27;20249;-82
2024/01/29 02:10:40;;;;;;;9.93;2.70;;;29.40;99.90;;;;;;5123560;27;20199;-82
2024/01/29 02:13:14;;;;;;;8.32;2.60;;;29.40;99.90;;;;;;5133582;28;20199;-82
2024/01/29 02:15:46;;;;;;;11.73;2.63;;;29.40;99.90;;;;;;5129086;27;20229;-82
2024/01/29 02:18:19;;;;;;;10.10;2.50;;;29.50;99.90;;;;;;5132393;27;20580;-81
2024/01/29 02:20:51;;;;;;;12.50;2.95;;;29.50;99.90;;;;;;5131393;27;20285;-81
2024/01/29 02:23:23;;;;;;;11.05;2.42;;;29.40;99.90;;;;;;5117498;28;20684;-82
2024/01/29 02:25:55;;;;;;;10.40;2.22;;;29.40;99.90;;;;;;5114941;27;20253;-83
2024/01/29 02:28:27;;;;;;;10.98;2.45;;;29.30;99.90;;;;;;5114323;27;20200;-80
2024/01/29 02:30:58;;;;;;;10.20;2.50;;;29.30;99.90;;;;;;5130119;27;20194;-79
2024/01/29 02:33:29;;;;;;;8.40;2.15;;;29.40;99.90;;;;;;5122702;27;20191;-80
2024/01/29 02:36:00;;;;;;;12.75;2.58;;;29.40;99.90;;;;;;5112456;28;20201;-82
2024/01/29 02:38:33;;;;;;;12.32;2.20;;;29.50;99.90;;;;;;5114412;28;20202;-80
2024/01/29 02:41:04;;;;;;;11.75;2.55;;;29.60;99.90;;;;;;5113372;28;20199;-80
2024/01/29 02:43:35;;;;;;;8.85;2.15;;;29.60;99.90;;;;;;5113471;28;20194;-80
2024/01/29 02:46:06;;;;;;;10.82;2.47;;;29.70;99.90;;;;;;5125411;27;20236;-81
2024/01/29 02:48:37;;;;;;;9.18;2.28;;;29.70;99.90;;;;;;5135025;27;20677;-80
2024/01/29 02:51:08;;;;;;;12.50;2.80;;;29.70;99.90;;;;;;5132821;27;20592;-80
2024/01/29 02:53:41;;;;;;;15.63;2.70;;;29.60;99.90;;;;;;5131196;27;20201;-80
2024/01/29 02:56:12;;;;;;;14.43;2.65;;;29.60;99.90;;;;;;5132827;27;20284;-80
2024/01/29 02:58:41;;;;;;;8.30;2.25;;;29.60;99.90;;;;;;5121418;27;20191;-80
2024/01/29 03:01:12;;;;;;;11.95;2.63;;;29.60;99.90;;;;;;5113301;28;20312;-80
2024/01/29 03:03:43;;;;;;;10.48;2.50;;;29.70;99.90;;;;;;5120570;27;20197;-80
2024/01/29 03:06:14;;;;;;;7.47;2.17;;;29.70;99.90;;;;;;5133463;27;20218;-79
2024/01/29 03:08:47;;;;;;;14.95;2.45;;;29.70;99.90;;;;;;5143381;27;20288;-80
2024/01/29 03:11:17;;;;;;;12.20;2.35;;;29.70;99.90;;;;;;5154458;27;20229;-80
2024/01/29 03:13:48;;;;;;;12.25;2.50;;;29.80;99.90;;;;;;5150925;27;20194;-80
2024/01/29 03:16:19;;;;;;;20.30;2.83;;;29.80;99.90;;;;;;5133252;27;20198;-80
2024/01/29 03:18:50;;;;;;;9.75;2.50;;;29.90;99.90;;;;;;5134245;27;20197;-80
2024/01/29 03:21:21;;;;;;;9.52;2.42;;;29.90;99.90;;;;;;5127497;27;20191;-80
2024/01/29 03:23:54;;;;;;;12.75;2.63;;;29.90;99.90;;;;;;5123655;27;20223;-80
2024/01/29 03:26:24;;;;;;;11.52;2.90;;;29.90;99.90;;;;;;5134968;27;20781;-81
2024/01/29 03:28:55;;;;;;;9.02;2.35;;;29.90;99.90;;;;;;5133991;27;20201;-80
2024/01/29 03:31:26;;;;;;;9.75;2.20;;;29.90;99.90;;;;;;5132018;27;20193;-81
2024/01/29 03:33:57;;;;;;;14.77;2.75;;;29.90;99.90;;;;;;5127225;27;20214;-81
2024/01/29 03:36:28;;;;;;;10.95;2.53;;;29.80;99.90;;;;;;5133756;27;20197;-80
2024/01/29 03:39:01;;;;;;;11.10;2.58;;;29.80;99.90;;;;;;5113342;27;20201;-81
2024/01/29 03:41:34;;;;;;;9.98;2.38;;;29.80;99.90;;;;;;5112283;27;20195;-79
2024/01/29 03:44:05;;;;;;;11.55;2.50;;;29.70;99.90;;;;;;5132673;27;20197;-80
2024/01/29 03:46:35;;;;;;;9.75;2.20;;;29.70;99.90;;;;;;5131202;27;20316;-80
2024/01/29 03:49:06;;;;;;;12.85;2.50;;;29.70;99.90;;;;;;5128349;27;20200;-80
2024/01/29 03:51:37;;;;;;;8.02;2.35;;;29.80;99.90;;;;;;5128984;27;20225;-80
2024/01/29 03:54:09;;;;;;;13.30;2.75;;;29.80;99.90;;;;;;5112237;28;20658;-81
2024/01/29 03:56:40;;;;;;;9.68;2.35;;;29.90;99.90;;;;;;5112380;28;20212;-81
2024/01/29 03:59:11;;;;;;;14.15;2.85;;;29.90;99.90;;;;;;5112959;28;20228;-81
2024/01/29 04:01:43;;;;;;;10.02;2.50;;;29.90;99.90;;;;;;5118559;27;20197;-83
2024/01/29 04:04:13;;;;;;;13.45;2.88;;;29.80;99.90;;;;;;5130957;27;20539;-80
2024/01/29 04:06:46;;;;;;;13.07;2.50;;;29.80;99.90;;;;;;5115976;27;20248;-80
2024/01/29 04:09:21;;;;;;;14.05;2.90;;;29.90;99.90;;;;;;5134264;27;20261;-82
2024/01/29 04:11:53;;;;;;;10.45;2.75;;;30.00;99.90;;;;;;5131756;27;20569;-81
2024/01/29 04:14:24;;;;;;;12.02;3.33;;;29.80;99.90;;;;;;5133301;27;20197;-81
2024/01/29 04:16:55;;;;;;;12.15;2.60;;;29.90;99.90;;;;;;5131639;27;20198;-81
2024/01/29 04:19:26;;;;;;;12.75;2.72;;;30.00;99.90;;;;;;5118612;27;20209;-82
2024/01/29 04:21:57;;;;;;;9.45;2.50;;;30.10;99.90;;;;;;5130570;27;20203;-82
2024/01/29 04:24:30;;;;;;;14.15;2.97;;;30.10;99.90;;;;;;5123890;27;20205;-82
2024/01/29 04:27:01;;;;;;;16.80;3.17;;;30.00;99.90;;;;;;5132406;27;20749;-81
2024/01/29 04:29:31;;;;;;;13.85;2.80;;;29.90;99.90;;;;;;5128918;27;20198;-81
2024/01/29 04:32:02;;;;;;;9.43;2.33;;;30.00;99.90;;;;;;5123927;27;20186;-81
2024/01/29 04:34:33;;;;;;;11.82;3.05;;;30.00;99.90;;;;;;5128632;27;20709;-81
2024/01/29 04:37:04;;;;;;;14.15;3.00;;;30.00;99.90;;;;;;5120032;27;20199;-81
2024/01/29 04:39:39;;;;;;;15.73;2.67;;;30.00;99.90;;;;;;5124332;27;20212;-81
2024/01/29 04:42:10;;;;;;;13.07;3.03;;;29.90;99.90;;;;;;5113665;27;20281;-81
2024/01/29 04:44:41;;;;;;;12.43;2.75;;;29.90;99.90;;;;;;5111878;28;20240;-81
2024/01/29 04:47:12;;;;;;;11.95;2.50;;;29.90;99.90;;;;;;5110996;28;20218;-80
2024/01/29 04:49:43;;;;;;;11.15;2.45;;;30.00;99.90;;;;;;5130235;27;20206;-81
2024/01/29 04:52:14;;;;;;;12.43;2.33;;;30.00;99.90;;;;;;5110546;28;20226;-81
2024/01/29 04:54:46;;;;;;;15.02;3.15;;;30.00;99.90;;;;;;5118664;27;20223;-81
2024/01/29 04:57:17;;;;;;;9.82;2.30;;;30.00;99.90;;;;;;5118343;27;20217;-81
2024/01/29 04:59:48;;;;;;;13.52;2.90;;;30.00;99.90;;;;;;5110879;28;20207;-81
2024/01/29 05:02:19;;;;;;;11.82;2.95;;;30.00;99.90;;;;;;5111954;28;20194;-81
2024/01/29 05:04:50;;;;;;;14.60;3.08;;;30.20;99.90;;;;;;5117285;27;20657;-81
2024/01/29 05:07:21;;;;;;;12.43;2.88;;;30.20;99.90;;;;;;5127089;27;20218;-80
2024/01/29 05:09:54;;;;;;;12.02;2.95;;;30.20;99.90;;;;;;5125036;27;20196;-80
2024/01/29 05:12:25;;;;;;;10.38;2.40;;;30.20;99.90;;;;;;5119860;27;20186;-80
2024/01/29 05:14:56;;;;;;;13.77;2.72;;;30.10;99.90;;;;;;5127648;27;20229;-80
2024/01/29 05:17:26;;;;;;;11.02;2.58;;;30.20;99.90;;;;;;5129369;27;20194;-80
2024/01/29 05:19:57;;;;;;;11.40;2.60;;;30.30;99.90;;;;;;5111430;28;20692;-80
2024/01/29 05:22:28;;;;;;;14.60;3.15;;;30.20;99.90;;;;;;5111192;28;20210;-81
2024/01/29 05:25:01;;;;;;;14.20;2.72;;;30.30;99.90;;;;;;5117713;27;20685;-81
2024/01/29 05:27:31;;;;;;;11.77;2.47;;;30.40;99.90;;;;;;5111182;28;20571;-81
2024/01/29 05:30:02;;;;;;;13.77;2.80;;;30.30;99.90;;;;;;5111333;28;20194;-81
2024/01/29 05:32:33;;;;;;;14.10;3.00;;;30.40;99.90;;;;;;5112095;28;20630;-81
2024/01/29 05:35:04;;;;;;;13.30;3.35;;;30.40;99.90;;;;;;5111108;28;20220;-82
2024/01/29 05:37:35;;;;;;;14.90;2.75;;;30.40;99.90;;;;;;5116860;28;20566;-81
2024/01/29 05:40:11;;;;;;;11.80;2.60;;;30.50;99.90;;;;;;5110622;28;20607;-81
2024/01/29 05:42:42;;;;;;;11.88;2.90;;;30.50;99.90;;;;;;5110428;28;20195;-81
2024/01/29 05:45:13;;;;;;;14.10;2.80;;;30.70;99.90;;;;;;5111373;28;20198;-81
2024/01/29 05:47:43;;;;;;;7.93;2.58;;;30.70;99.90;;;;;;5110842;28;20303;-80
2024/01/29 05:50:14;;;;;;;12.05;2.83;;;30.80;99.90;;;;;;5118537;28;20201;-80
2024/01/29 05:52:45;;;;;;;10.70;2.80;;;30.90;99.90;;;;;;5130334;28;20197;-80
2024/01/29 05:55:18;;;;;;;12.32;2.80;;;31.00;99.90;;;;;;5131357;28;20769;-80
2024/01/29 05:57:49;;;;;;;11.85;2.88;;;30.80;99.90;;;;;;5112765;28;20198;-80
2024/01/29 06:00:21;;;;;;;15.35;2.80;;;30.90;99.90;;;;;;5110733;28;20581;-80
2024/01/29 06:02:52;;;;;;;14.57;2.88;;;31.00;99.90;;;;;;5120597;27;20293;-80
2024/01/29 06:05:22;;;;;;;18.65;3.40;;;31.10;99.90;;;;;;5136298;27;20622;-77
2024/01/29 06:07:55;;;;;;;13.30;3.22;;;31.10;99.90;;;;;;5110827;28;20223;-79
2024/01/29 06:10:28;;;;;;;9.82;2.97;;;31.10;99.90;;;;;;5122231;28;20194;-79
2024/01/29 06:12:58;;;;;;;13.50;3.20;;;31.30;99.90;;;;;;5116594;28;20204;-80
2024/01/29 06:15:29;;;;;;;14.45;3.03;;;31.40;99.90;;;;;;5130251;28;20203;-78
2024/01/29 06:18:00;;;;;;;11.38;2.78;;;31.50;99.90;;;;;;5129689;28;20681;-79
2024/01/29 06:20:31;;;;;;;14.25;3.00;;;31.70;99.90;;;;;;5110990;28;20571;-79
2024/01/29 06:23:01;;;;;;;16.60;3.30;;;31.90;99.90;;;;;;5128596;28;20202;-79
2024/01/29 06:25:34;;;;;;;19.42;3.45;;;31.90;99.90;;;;;;5130444;28;20658;-79
2024/01/29 06:28:05;;;;;;;14.02;3.40;;;32.20;99.90;;;;;;5132310;28;20221;-78
2024/01/29 06:30:36;;;;;;;13.45;2.80;;;32.60;99.90;;;;;;5129350;28;20573;-78
2024/01/29 06:33:07;;;;;;;16.08;3.20;;;32.90;99.90;;;;;;5129099;28;20205;-79
2024/01/29 06:35:38;;;;;;;11.20;3.22;;;33.10;99.90;;;;;;5128750;28;20208;-79
2024/01/29 06:38:09;;;;;;;11.20;2.72;;;33.00;99.90;;;;;;5118574;28;20578;-78
2024/01/29 06:40:41;;;;;;;13.10;3.22;;;33.10;99.90;;;;;;5128976;27;20204;-78
2024/01/29 06:43:12;;;;;;;13.15;2.70;;;33.10;99.90;;;;;;5120276;28;20202;-78
2024/01/29 06:45:43;;;;;;;15.35;3.08;;;33.10;99.90;;;;;;5114751;28;20202;-79
2024/01/29 06:48:14;;;;;;;12.80;3.22;;;33.30;99.90;;;;;;5136243;27;20700;-78
2024/01/29 06:50:44;;;;;;;14.27;2.88;;;33.40;99.90;;;;;;5132728;27;20226;-78
2024/01/29 06:53:15;;;;;;;14.25;3.45;;;33.40;99.90;;;;;;5126560;27;20713;-78
2024/01/29 06:55:48;;;;;;;11.73;2.25;;;33.40;99.90;;;;;;5119192;27;20232;-79
2024/01/29 06:58:18;;;;;;;14.52;3.05;;;33.50;99.90;;;;;;5132486;27;20736;-79
2024/01/29 07:00:50;;;;;;;17.58;3.15;;;33.50;99.90;;;;;;5128925;27;20669;-78
2024/01/29 07:03:21;;;;;;;17.25;3.30;;;33.80;99.90;;;;;;5113495;27;20243;-78
2024/01/29 07:05:52;;;;;;;16.63;3.10;;;34.00;99.90;;;;;;5115258;28;20241;-78
2024/01/29 07:08:23;;;;;;;9.07;2.85;;;34.10;99.90;;;;;;5123628;27;20300;-77
2024/01/29 07:10:55;;;;;;;14.05;2.78;;;34.40;99.90;;;;;;5128261;27;20268;-77
2024/01/29 07:13:26;;;;;;;9.90;2.92;;;34.80;99.90;;;;;;5125612;27;20199;-79
2024/01/29 07:15:57;;;;;;;12.73;3.42;;;35.00;99.90;;;;;;5118537;27;20194;-79
2024/01/29 07:18:28;;;;;;;11.93;2.88;;;35.10;99.90;;;;;;5134731;27;20197;-80
2024/01/29 07:20:58;;;;;;;13.05;2.65;;;35.20;99.90;;;;;;5130090;27;20621;-80
2024/01/29 07:23:29;;;;;;;12.95;2.88;;;35.20;99.90;;;;;;5113945;28;20678;-79
2024/01/29 07:26:02;;;;;;;11.85;3.20;;;35.20;99.90;;;;;;5123796;27;20190;-79
2024/01/29 07:28:32;;;;;;;11.82;2.85;;;35.30;99.90;;;;;;5131953;27;20712;-79
2024/01/29 07:31:03;;;;;;;11.98;3.30;;;35.30;99.90;;;;;;5125653;27;20563;-80
2024/01/29 07:33:34;;;;;;;12.50;3.17;;;35.10;99.90;;;;;;5113808;28;20566;-79
2024/01/29 07:36:05;;;;;;;10.25;2.53;;;35.00;99.90;;;;;;5123838;27;20562;-79
2024/01/29 07:38:36;;;;;;;11.90;2.83;;;34.80;99.90;;;;;;5129827;27;20194;-79
2024/01/29 07:41:09;;;;;;;12.77;3.05;;;34.90;99.90;;;;;;5124776;27;20662;-79
2024/01/29 07:43:40;;;;;;;12.48;2.90;;;34.80;99.90;;;;;;5113257;28;20194;-79
2024/01/29 07:46:12;;;;;;;12.30;3.10;;;34.80;99.90;;;;;;5141675;27;20197;-79
2024/01/29 07:48:43;;;;;;;10.43;2.83;;;34.60;99.90;;;;;;5125878;27;20222;-79
2024/01/29 07:51:13;;;;;;;15.38;3.22;;;34.40;99.90;;;;;;5123382;27;20345;-79
2024/01/29 07:53:44;;;;;;;12.85;3.38;;;34.10;99.90;;;;;;5115953;27;20285;-79
2024/01/29 07:56:17;;;;;;;14.20;3.20;;;33.90;99.90;;;;;;5114689;27;20194;-79
2024/01/29 07:58:47;;;;;;;13.23;3.38;;;33.70;99.90;;;;;;5123827;27;20205;-79
2024/01/29 08:01:18;;;;;;;12.38;3.33;;;33.40;99.90;;;;;;5119758;27;20194;-79
2024/01/29 08:03:49;;;;;;;12.05;3.08;;;33.30;99.90;;;;;;5128104;27;20203;-79
2024/01/29 08:06:22;;;;;;;11.45;3.30;;;33.00;99.90;;;;;;5126525;27;20188;-77
2024/01/29 08:08:53;;;;;;;9.68;2.80;;;32.80;99.90;;;;;;5129616;27;20229;-79
2024/01/29 08:11:26;;;;;;;13.43;3.60;;;32.30;99.90;;;;;;5123698;27;20191;-79
2024/01/29 08:13:57;;;;;;;15.60;3.20;;;31.90;99.90;;;;;;5126641;27;20556;-79
2024/01/29 08:16:28;;;;;;;13.40;3.00;;;31.50;99.90;;;;;;5131327;27;20192;-79
2024/01/29 08:18:58;;;;;;;12.40;3.08;;;31.20;99.90;;;;;;5142315;27;20280;-80
2024/01/29 08:21:29;;;;;;;13.10;3.33;;;30.80;99.90;;;;;;5121292;27;20210;-78
2024/01/29 08:24:00;;;;;;;14.00;3.55;;;30.60;99.90;;;;;;5129144;27;20201;-79
2024/01/29 08:26:32;;;;;;;13.13;3.70;;;30.30;99.90;;;;;;5111507;28;20197;-79
2024/01/29 08:29:03;;;;;;;13.90;3.47;;;30.00;99.90;;;;;;5112003;28;20206;-79
2024/01/29 08:31:34;;;;;;;15.00;3.28;;;29.60;99.90;;;;;;5111460;28;20276;-77
2024/01/29 08:34:05;;;;;;;15.80;3.70;;;29.50;99.90;;;;;;5116398;27;20693;-79
2024/01/29 08:36:35;;;;;;;14.43;3.45;;;29.40;99.90;;;;;;5125537;27;20647;-78
2024/01/29 08:39:06;;;;;;;13.23;3.60;;;29.30;99.90;;;;;;5114054;27;20216;-78
2024/01/29 08:41:39;;;;;;;13.98;3.30;;;29.20;99.90;;;;;;5113287;27;20214;-77
2024/01/29 08:44:10;;;;;;;12.70;3.00;;;29.00;99.90;;;;;;5114409;27;20226;-78
2024/01/29 08:46:41;;;;;;;18.42;3.92;;;28.90;99.90;;;;;;5123837;27;20677;-79
2024/01/29 08:49:14;;;;;;;15.43;3.72;;;28.80;99.90;;;;;;5130678;27;20221;-79
2024/01/29 08:51:45;;;;;;;15.05;3.60;;;28.70;99.90;;;;;;5136859;27;20225;-78
2024/01/29 08:54:18;;;;;;;14.00;3.42;;;28.50;99.90;;;;;;5158625;27;20193;-77
2024/01/29 08:56:51;;;;;;;13.02;3.20;;;28.50;99.90;;;;;;5161024;27;20266;-79
2024/01/29 08:59:22;;;;;;;22.55;3.92;;;28.40;99.90;;;;;;5127980;27;20194;-79
2024/01/29 09:01:53;;;;;;;16.13;3.45;;;28.30;99.90;;;;;;5119328;27;20204;-78
2024/01/29 09:04:24;;;;;;;18.75;4.10;;;28.20;99.90;;;;;;5115332;27;20194;-78
2024/01/29 09:06:58;;;;;;;16.00;3.75;;;28.10;99.90;;;;;;5131864;27;20563;-77
2024/01/29 09:09:28;;;;;;;17.02;3.13;;;28.00;99.90;;;;;;5129429;27;20593;-78
2024/01/29 09:12:01;;;;;;;19.83;4.07;;;27.90;99.90;;;;;;5130816;27;20238;-79
2024/01/29 09:14:33;;;;;;;15.73;3.53;;;27.80;99.90;;;;;;5129647;27;20685;-78
2024/01/29 09:17:04;;;;;;;15.48;3.53;;;27.80;99.90;;;;;;5121112;27;20195;-79
2024/01/29 09:19:34;;;;;;;15.93;3.30;;;27.70;99.90;;;;;;5113363;27;20190;-78
2024/01/29 09:22:05;;;;;;;21.30;4.43;;;27.70;99.90;;;;;;5127374;27;20541;-80
2024/01/29 09:24:36;;;;;;;23.02;3.90;;;27.70;99.90;;;;;;5118415;27;20191;-78
2024/01/29 09:27:09;;;;;;;19.77;4.15;;;27.60;99.90;;;;;;5131328;27;20198;-79
2024/01/29 09:29:40;;;;;;;17.13;3.58;;;27.60;99.90;;;;;;5123299;27;20712;-78
2024/01/29 09:32:12;;;;;;;16.13;3.35;;;27.50;99.90;;;;;;5130671;27;20198;-82
2024/01/29 09:34:42;;;;;;;17.52;3.85;;;27.50;99.90;;;;;;5111462;28;20198;-78
2024/01/29 09:37:13;;;;;;;18.48;3.40;;;27.50;99.90;;;;;;5110123;28;20198;-77
2024/01/29 09:39:44;;;;;;;18.70;3.88;;;27.50;99.90;;;;;;5114840;28;20194;-78
2024/01/29 09:42:20;;;;;;;19.63;3.58;;;27.50;99.90;;;;;;5127037;27;20243;-79
2024/01/29 09:44:52;;;;;;;18.65;3.60;;;27.50;99.90;;;;;;5110842;28;20210;-79
2024/01/29 09:47:24;;;;;;;18.75;3.55;;;27.50;99.90;;;;;;5111440;28;20195;-78
2024/01/29 09:49:56;;;;;;;15.30;3.63;;;27.40;99.90;;;;;;5114749;28;20207;-78
2024/01/29 09:52:28;;;;;;;16.98;3.35;;;27.40;99.90;;;;;;5117969;28;20233;-78
2024/01/29 09:54:59;;;;;;;20.60;3.75;;;27.40;99.90;;;;;;5115362;28;20194;-77
2024/01/29 09:57:32;;;;;;;15.82;3.42;;;27.40;99.90;;;;;;5110572;28;20201;-78
2024/01/29 10:00:03;;;;;;;15.20;3.60;;;27.40;99.90;;;;;;5117275;28;20202;-76
2024/01/29 10:02:37;;;;;;;13.38;3.42;;;27.40;99.90;;;;;;5127744;28;20194;-77
2024/01/29 10:05:11;;;;;;;16.70;3.95;;;27.40;99.90;;;;;;5117619;28;20226;-79
2024/01/29 10:07:43;;;;;;;15.75;3.47;;;27.30;99.90;;;;;;5126330;27;20673;-78
2024/01/29 10:10:14;;;;;;;16.30;3.60;;;27.40;99.90;;;;;;5133253;27;20193;-77
2024/01/29 10:12:46;;;;;;;17.50;4.05;;;27.30;99.90;;;;;;5128724;27;20190;-79
2024/01/29 10:15:18;;;;;;;20.45;3.72;;;27.30;99.90;;;;;;5130476;27;20186;-78
2024/01/29 10:17:49;;;;;;;14.88;3.20;;;27.30;99.90;;;;;;5124673;27;20549;-79
2024/01/29 10:20:23;;;;;;;21.05;3.83;;;27.30;99.90;;;;;;5114860;27;20206;-77
2024/01/29 10:23:02;;;;;;;17.27;4.10;;;27.30;99.90;;;;;;5142992;27;20241;-79
2024/01/29 10:25:35;;;;;;;21.08;3.90;;;27.40;99.90;;;;;;5145053;27;20186;-80
2024/01/29 10:28:13;;;;;;;15.65;4.10;;;27.30;99.90;;;;;;5133427;27;20214;-78
2024/01/29 10:30:43;;;;;;;18.15;3.67;;;27.30;99.90;;;;;;5128918;27;20244;-79
2024/01/29 10:33:14;;;;;;;17.75;3.53;;;27.30;99.90;;;;;;5113714;28;20567;-78
2024/01/29 10:35:45;;;;;;;18.00;3.83;;;27.30;99.90;;;;;;5114055;28;20302;-79
2024/01/29 10:38:18;;;;;;;12.10;3.13;;;27.30;99.90;;;;;;5114668;27;20285;-79
2024/01/29 10:40:50;;;;;;;18.67;3.90;;;27.20;99.90;;;;;;5113803;28;20195;-79
2024/01/29 10:43:27;;;;;;;18.00;3.67;;;27.20;99.90;;;;;;5119158;27;20196;-78
2024/01/29 10:45:59;;;;;;;26.35;4.82;;;27.20;99.90;;;;;;5122489;27;20198;-78
2024/01/29 10:48:32;;;;;;;21.73;4.28;;;27.20;99.90;;;;;;5129135;27;20221;-78
2024/01/29 10:51:03;;;;;;;18.38;3.45;;;27.20;99.90;;;;;;5149310;27;20303;-78
2024/01/29 10:53:35;;;;;;;19.65;3.97;;;27.30;99.90;;;;;;5117427;27;20194;-80
2024/01/29 10:56:07;;;;;;;18.02;3.67;;;27.30;99.90;;;;;;5123232;27;20204;-78
2024/01/29 10:58:41;;;;;;;16.42;3.58;;;27.30;99.90;;;;;;5118771;27;20596;-80
2024/01/29 11:01:13;;;;;;;19.90;3.67;;;27.30;99.90;;;;;;5114194;27;20233;-78
2024/01/29 11:03:44;;;;;;;16.35;3.67;;;27.30;99.90;;;;;;5114096;28;20195;-79
2024/01/29 11:06:22;;;;;;;15.43;3.95;;;27.40;99.90;;;;;;5122627;27;20570;-80
2024/01/29 11:08:56;;;;;;;20.00;3.83;;;27.40;99.90;;;;;;5138516;27;20229;-79
2024/01/29 11:11:29;;;;;;;18.95;3.80;;;27.40;99.90;;;;;;5128716;27;20570;-79
2024/01/29 11:14:03;;;;;;;17.45;3.60;;;27.30;99.90;;;;;;5116138;27;20269;-79
2024/01/29 11:16:35;;;;;;;18.65;3.80;;;27.40;99.90;;;;;;5114413;27;20201;-79
2024/01/29 11:19:06;;;;;;;18.17;3.80;;;27.30;99.90;;;;;;5113128;27;20287;-79
2024/01/29 11:21:45;;;;;;;18.85;3.83;;;27.30;99.90;;;;;;5112981;28;20609;-78
2024/01/29 11:24:16;;;;;;;17.00;3.63;;;27.30;99.90;;;;;;5113620;28;20281;-79
2024/01/29 11:26:47;;;;;;;19.25;4.03;;;27.30;99.90;;;;;;5113354;28;20563;-78
2024/01/29 11:29:22;;;;;;;14.27;3.60;;;27.30;99.90;;;;;;5125150;27;20222;-78
2024/01/29 11:31:53;;;;;;;20.63;3.75;;;27.20;99.90;;;;;;5121598;27;20234;-78
2024/01/29 11:34:30;;;;;;;16.95;3.78;;;27.20;99.90;;;;;;5133335;27;20197;-79
2024/01/29 11:37:01;;;;;;;17.80;3.50;;;27.20;99.90;;;;;;5132820;27;20200;-79
2024/01/29 11:39:32;;;;;;;18.17;3.70;;;27.20;99.90;;;;;;5112947;28;20290;-79
2024/01/29 11:42:02;;;;;;;19.33;3.83;;;27.30;99.90;;;;;;5112461;27;20603;-80
2024/01/29 11:44:36;;;;;;;17.75;3.95;;;27.20;99.90;;;;;;5113845;27;20669;-79
2024/01/29 11:47:11;;;;;;;21.27;3.92;;;27.20;99.90;;;;;;5127859;27;20213;-79
2024/01/29 11:49:42;;;;;;;18.58;4.10;;;27.20;99.90;;;;;;5111895;28;20225;-79
2024/01/29 11:52:13;;;;;;;21.60;4.35;;;27.20;99.90;;;;;;5110365;27;20215;-79
2024/01/29 11:54:45;;;;;;;21.05;4.38;;;27.20;99.90;;;;;;5123526;27;20282;-79
2024/01/29 11:57:15;;;;;;;14.93;3.72;;;27.20;99.90;;;;;;5112405;28;20198;-79
2024/01/29 11:59:52;;;;;;;18.38;4.32;;;27.30;99.90;;;;;;5131410;27;20194;-79
2024/01/29 12:02:22;;;;;;;19.95;4.13;;;27.30;99.90;;;;;;5122417;27;20185;-79
2024/01/29 12:04:53;;;;;;;20.08;4.13;;;27.30;99.90;;;;;;5132885;27;20227;-80
2024/01/29 12:07:24;;;;;;;19.88;4.05;;;27.30;99.90;;;;;;5130562;27;20193;-79
2024/01/29 12:09:55;;;;;;;22.05;3.97;;;27.20;99.90;;;;;;5115372;27;20769;-78
2024/01/29 12:12:26;;;;;;;15.40;3.30;;;27.20;99.90;;;;;;5124049;27;20190;-79
2024/01/29 12:14:59;;;;;;;20.58;3.97;;;27.10;99.90;;;;;;5099486;28;20198;-79
2024/01/29 12:17:32;;;;;;;17.58;4.13;;;27.10;99.90;;;;;;5126254;28;20233;-78
2024/01/29 12:20:03;;;;;;;19.48;3.95;;;27.20;99.90;;;;;;5120890;27;20676;-79
2024/01/29 12:22:34;;;;;;;16.17;3.78;;;27.20;99.90;;;;;;5120684;27;20681;-78
2024/01/29 12:25:07;;;;;;;23.80;4.10;;;27.20;99.90;;;;;;5129051;27;20186;-79
2024/01/29 12:27:38;;;;;;;20.17;3.97;;;27.20;99.90;;;;;;5128528;27;20190;-79
2024/01/29 12:30:14;;;;;;;20.33;3.83;;;27.20;99.90;;;;;;5128755;27;20218;-79
2024/01/29 12:32:47;;;;;;;17.55;3.65;;;27.20;99.90;;;;;;5132846;27;20669;-78
2024/01/29 12:35:31;;;;;;;18.17;3.85;;;27.20;99.90;;;;;;5132777;27;20197;-80
2024/01/29 12:38:08;;;;;;;26.58;4.80;;;27.20;99.90;;;;;;5130857;27;20198;-80
2024/01/29 12:40:39;;;;;;;18.55;3.60;;;27.20;99.90;;;;;;5153218;27;20200;-79
2024/01/29 12:43:11;;;;;;;20.17;3.97;;;27.20;99.90;;;;;;5117568;27;20194;-80
2024/01/29 12:45:46;;;;;;;17.35;3.85;;;27.20;99.90;;;;;;5111526;28;20530;-80
2024/01/29 12:48:19;;;;;;;21.05;4.22;;;27.20;99.90;;;;;;5128889;27;20273;-78
2024/01/29 12:50:50;;;;;;;19.63;4.18;;;27.10;99.90;;;;;;5118470;27;20225;-80
2024/01/29 12:53:21;;;;;;;22.83;4.45;;;27.10;99.90;;;;;;5120560;27;20199;-79
2024/01/29 12:55:52;;;;;;;18.50;3.97;;;27.10;99.90;;;;;;5133811;27;20197;-80
2024/01/29 12:58:24;;;;;;;19.55;4.43;;;27.10;99.90;;;;;;5121528;27;20198;-80
2024/01/29 13:00:57;;;;;;;23.73;4.15;;;27.10;99.90;;;;;;5122802;27;20658;-79